The Settlement, British Virgin Islands

12:48 PM AST on February 23, 2017 (GMT -0400)
Colison Point, Virgin Gorda | | Change Station

Elev 165 ft 18.46 °N, 64.44 °W | Updated 1 second ago

Mostly Cloudy
Mostly Cloudy
77.4 °F
Feels Like 79 °F
N
7.2
Wind Variable Wind from SSE
Gusts 10.1 mph

Today
High -- | Low -- °F
--% Chance of Precip.
Yesterday
High -- | Low -- °F
Precip. -- in
Pressure 29.92 in
Visibility 5.0 miles
Clouds Mostly Cloudy 1000 ft
Mostly Cloudy 2000 ft
Overcast 4600 ft
Heat Index 79 °F
Dew Point 71 °F
Humidity 80%
Rainfall 0.02 in
Snow Depth Not available.
6:40 AM 6:21 PM
Waning Crescent, 9% visible
SPECI TIST 231627Z 17013KT 5SM -RA BR BKN010 BKN020 OVC046 23/23 A2992 RMK AO2 P0010 T02330233
Pressure 29.92 in
Visibility 5.0 miles
Clouds Mostly Cloudy 1000 ft
Mostly Cloudy 2000 ft
Overcast 4600 ft
Heat Index 79 °F
Dew Point 71 °F
Humidity 80%
Rainfall 0.02 in
Snow Depth Not available.
6:40 AM 6:21 PM
Waning Crescent, 9% visible
SPECI TIST 231627Z 17013KT 5SM -RA BR BKN010 BKN020 OVC046 23/23 A2992 RMK AO2 P0010 T02330233

Get Your Daily Forecast Email!

Thanks for signing up!

Be on the lookout for a verification email in your inbox.

You'll start receiving the daily forecast at 8 AM.

×

10-Day Weather Forecast

No radar image for this location.
×

Almanac

Astronomy

Feb. 23, 2017 Rise Set
Actual Time
Civil Twilight
Nautical Twilight
Astronomical Twilight
Moon
Length of Visible Light
Length of Day
Tomorrow will be .
, % of the Moon is Illuminated

Today's Extremes

Country Highs Country Lows

Community

WunderPhotos

Upload Photos

1,962,540 photos uploaded!

WunderBlog® & News

Nearby

Air Quality

  Air Quality AQ Index Pollutant
Not available.

Snow Depth

Station Depth Elevation

Earthquake Activity

City Distance Mag. Time & Date
Minimum magnitude displayed is 2.5.

Coastal Water Temperatures

Place Temperature

Stations

Nearby Weather Stations

Station Location Temp. Windchill Dew Point Humidity Wind Precip. Elev Updated Type